createdAt,value
2023-04-27T00:00:26.995Z,10.28
2023-04-27T00:01:27.567Z,10.25
2023-04-27T00:02:27.828Z,10.30
2023-04-27T00:03:28.078Z,10.28
2023-04-27T00:04:28.425Z,10.25
2023-04-27T00:05:28.694Z,10.22
2023-04-27T00:06:28.868Z,10.18
2023-04-27T00:07:29.120Z,10.09
2023-04-27T00:08:29.480Z,10.12
2023-04-27T00:09:29.765Z,10.12
2023-04-27T00:10:30.109Z,10.14
2023-04-27T00:11:30.509Z,10.04
2023-04-27T00:12:30.527Z,9.96
2023-04-27T00:13:30.990Z,9.88
2023-04-27T00:14:31.233Z,9.89
2023-04-27T00:15:31.574Z,9.88
2023-04-27T00:16:32.062Z,9.89
2023-04-27T00:17:32.219Z,9.89
2023-04-27T00:18:32.563Z,9.91
2023-04-27T00:19:32.760Z,9.89
2023-04-27T00:20:33.056Z,9.89
2023-04-27T00:21:33.350Z,9.85
2023-04-27T00:22:33.696Z,9.82
2023-04-27T00:23:33.973Z,9.78
2023-04-27T00:24:34.273Z,9.78
2023-04-27T00:25:34.702Z,9.71
2023-04-27T00:26:34.896Z,9.68
2023-04-27T00:27:35.241Z,9.68
2023-04-27T00:28:35.414Z,9.60
2023-04-27T00:29:35.723Z,9.56
2023-04-27T00:30:36.065Z,9.57
2023-04-27T00:31:36.371Z,9.53
2023-04-27T00:32:36.652Z,9.48
2023-04-27T00:33:37.121Z,9.39
2023-04-27T00:34:37.248Z,9.38
2023-04-27T00:35:37.532Z,9.40
2023-04-27T00:36:37.949Z,9.45
2023-04-27T00:37:38.184Z,9.50
2023-04-27T00:38:38.654Z,9.57
2023-04-27T00:39:38.818Z,9.61
2023-04-27T00:40:39.105Z,9.64
2023-04-27T00:41:39.414Z,9.67
2023-04-27T00:42:40.976Z,9.64
2023-04-27T00:43:39.931Z,9.60
2023-04-27T00:44:40.650Z,9.60
2023-04-27T00:45:40.578Z,9.58
2023-04-27T00:46:40.792Z,9.60
2023-04-27T00:47:41.440Z,9.57
2023-04-27T00:48:41.397Z,9.52
2023-04-27T00:49:41.705Z,9.48
2023-04-27T00:50:41.881Z,9.49
2023-04-27T00:51:42.207Z,9.52
2023-04-27T00:52:42.435Z,9.52
2023-04-27T00:53:42.789Z,9.52
2023-04-27T00:54:43.126Z,9.56
2023-04-27T00:55:43.379Z,9.58
2023-04-27T00:56:43.701Z,9.57
2023-04-27T00:57:44.150Z,9.56
2023-04-27T00:58:44.303Z,9.56
2023-04-27T00:59:45.451Z,9.60
2023-04-27T01:00:44.823Z,9.57
2023-04-27T01:01:45.212Z,9.58
2023-04-27T01:02:46.042Z,9.56
2023-04-27T01:03:45.915Z,9.56
2023-04-27T01:04:45.943Z,9.53
2023-04-27T01:05:46.304Z,9.53
2023-04-27T01:06:46.440Z,9.56
2023-04-27T01:07:46.769Z,9.58
2023-04-27T01:08:46.940Z,9.60
2023-04-27T01:09:47.409Z,9.61
2023-04-27T01:10:47.528Z,9.58
2023-04-27T01:11:47.819Z,9.57
2023-04-27T01:12:48.244Z,9.60
2023-04-27T01:13:48.394Z,9.60
2023-04-27T01:14:48.737Z,9.63
2023-04-27T01:15:49.337Z,9.60
2023-04-27T01:16:49.347Z,9.56
2023-04-27T01:17:49.711Z,9.50
2023-04-27T01:18:49.944Z,9.49
2023-04-27T01:19:50.274Z,9.45
2023-04-27T01:20:50.541Z,9.46
2023-04-27T01:21:51.135Z,9.45
2023-04-27T01:22:51.038Z,9.39
2023-04-27T01:23:51.393Z,9.38
2023-04-27T01:24:51.640Z,9.34
2023-04-27T01:25:51.963Z,9.32
2023-04-27T01:26:53.206Z,9.31
2023-04-27T01:27:52.506Z,9.31
2023-04-27T01:28:52.789Z,9.28
2023-04-27T01:29:53.207Z,9.27
2023-04-27T01:30:53.351Z,9.27
2023-04-27T01:31:53.606Z,9.25
2023-04-27T01:32:53.888Z,9.25
2023-04-27T01:33:54.208Z,9.27
2023-04-27T01:34:54.536Z,9.27
2023-04-27T01:35:54.809Z,9.30
2023-04-27T01:36:55.112Z,9.30
2023-04-27T01:37:55.441Z,9.35
2023-04-27T01:38:55.721Z,9.40
2023-04-27T01:39:56.076Z,9.40
2023-04-27T01:40:56.330Z,9.42
2023-04-27T01:41:58.346Z,9.45
2023-04-27T01:42:56.973Z,9.48
2023-04-27T01:43:57.269Z,9.49
2023-04-27T01:44:57.636Z,9.50
2023-04-27T01:45:57.899Z,9.50
2023-04-27T01:46:58.152Z,9.52
2023-04-27T01:47:58.475Z,9.56
2023-04-27T01:48:58.743Z,9.49
2023-04-27T01:49:59.104Z,9.42
2023-04-27T01:51:20.379Z,9.40
2023-04-27T01:51:59.731Z,9.38
2023-04-27T01:53:00.126Z,9.32
2023-04-27T01:54:21.359Z,9.30
2023-04-27T01:55:00.647Z,9.28
2023-04-27T01:56:00.960Z,9.25
2023-04-27T01:57:01.319Z,9.23
2023-04-27T01:58:01.548Z,9.23
2023-04-27T01:59:01.838Z,9.18
2023-04-27T02:00:02.171Z,9.15
2023-04-27T02:01:02.588Z,9.12
2023-04-27T02:02:02.904Z,9.04
2023-04-27T02:03:24.124Z,9.01
2023-04-27T02:04:24.286Z,8.96
2023-04-27T02:05:03.440Z,8.93
2023-04-27T02:06:03.781Z,8.93
2023-04-27T02:07:03.997Z,8.94
2023-04-27T02:08:04.335Z,8.94
2023-04-27T02:09:25.612Z,8.90
2023-04-27T02:10:04.954Z,8.87
2023-04-27T02:11:05.163Z,8.87
2023-04-27T02:12:05.496Z,8.88
2023-04-27T02:13:05.790Z,8.87
2023-04-27T02:14:06.083Z,8.87
2023-04-27T02:15:06.488Z,8.88
2023-04-27T02:16:06.793Z,8.88
2023-04-27T02:17:07.097Z,8.84
2023-04-27T02:18:28.465Z,8.86
2023-04-27T02:19:07.617Z,8.84
2023-04-27T02:20:08.230Z,8.86
2023-04-27T02:21:29.163Z,8.86
2023-04-27T02:22:09.383Z,8.84
2023-04-27T02:23:08.795Z,8.84
2023-04-27T02:24:09.064Z,8.81
2023-04-27T02:25:09.807Z,8.84
2023-04-27T02:26:09.817Z,8.83
2023-04-27T02:27:09.990Z,8.83
2023-04-27T02:30:43.090Z,8.93
2023-04-27T02:31:43.396Z,8.94
2023-04-27T02:32:43.570Z,8.94
2023-04-27T02:33:43.865Z,8.96
2023-04-27T02:35:05.199Z,8.93
2023-04-27T02:36:05.528Z,8.99
2023-04-27T02:39:15.852Z,9.04
2023-04-27T02:40:15.862Z,9.02
2023-04-27T02:42:31.624Z,9.04
2023-04-27T02:43:31.913Z,9.05
2023-04-27T02:45:48.623Z,9.01
2023-04-27T02:46:48.915Z,9.01
2023-04-27T02:48:10.313Z,8.97
2023-04-27T02:48:49.461Z,8.97
2023-04-27T02:52:21.656Z,8.99
2023-04-27T02:54:37.227Z,9.01
2023-04-27T02:56:53.898Z,9.02
2023-04-27T02:58:15.223Z,9.02
2023-04-27T02:59:15.838Z,9.05
2023-04-27T03:00:15.763Z,9.05
2023-04-27T03:01:16.131Z,9.09
2023-04-27T03:02:16.551Z,9.09
2023-04-27T03:02:55.690Z,9.12
2023-04-27T03:03:56.038Z,9.13
2023-04-27T03:05:17.083Z,9.13
2023-04-27T03:07:12.816Z,9.12
2023-04-27T03:08:34.137Z,9.13
2023-04-27T03:09:34.348Z,9.12
2023-04-27T03:10:34.602Z,9.10
2023-04-27T03:14:05.659Z,8.96
2023-04-27T03:18:31.241Z,8.87
2023-04-27T03:19:52.501Z,8.87
2023-04-27T03:20:31.780Z,8.90
2023-04-27T03:21:32.151Z,8.90
2023-04-27T03:22:32.309Z,8.90
2023-04-27T03:23:32.669Z,8.91
2023-04-27T03:24:32.961Z,8.91
2023-04-27T03:25:33.183Z,8.90
2023-04-27T03:26:33.446Z,8.91
2023-04-27T03:27:33.819Z,8.91
2023-04-27T03:28:34.113Z,8.86
2023-04-27T03:29:34.645Z,8.84
2023-04-27T03:30:34.686Z,8.83
2023-04-27T03:31:35.106Z,8.81
2023-04-27T03:32:35.436Z,8.79
2023-04-27T03:33:35.598Z,8.84
2023-04-27T03:34:35.958Z,8.81
2023-04-27T03:35:36.306Z,8.87
2023-04-27T03:36:36.579Z,8.84
2023-04-27T03:37:36.888Z,8.81
2023-04-27T03:38:37.040Z,8.83
2023-04-27T03:39:37.427Z,8.84
2023-04-27T03:40:37.676Z,8.83
2023-04-27T03:41:37.951Z,8.81
2023-04-27T03:42:38.158Z,8.76
2023-04-27T03:43:38.549Z,8.76
2023-04-27T03:44:39.021Z,8.78
2023-04-27T03:45:39.154Z,8.86
2023-04-27T03:46:39.540Z,8.81
2023-04-27T03:47:39.704Z,8.84
2023-04-27T03:48:39.915Z,8.90
2023-04-27T03:49:40.201Z,8.86
2023-04-27T03:50:40.570Z,8.86
2023-04-27T03:51:40.732Z,8.87
2023-04-27T03:52:41.067Z,8.87
2023-04-27T03:53:41.304Z,8.88
2023-04-27T03:54:41.521Z,8.79
2023-04-27T03:55:41.982Z,8.78
2023-04-27T03:56:42.176Z,8.78
2023-04-27T03:57:42.343Z,8.78
2023-04-27T03:58:42.656Z,8.75
2023-04-27T03:59:43.016Z,8.72
2023-04-27T04:00:43.194Z,8.71
2023-04-27T04:01:43.559Z,8.63
2023-04-27T04:02:43.913Z,8.60
2023-04-27T04:03:44.235Z,8.54
2023-04-27T04:04:44.435Z,8.50
2023-04-27T04:05:44.657Z,8.45
2023-04-27T04:06:44.863Z,8.44
2023-04-27T04:07:45.184Z,8.44
2023-04-27T04:08:45.400Z,8.42
2023-04-27T04:09:45.789Z,8.40
2023-04-27T04:10:46.099Z,8.40
2023-04-27T04:11:46.294Z,8.36
2023-04-27T04:12:46.529Z,8.36
2023-04-27T04:13:46.860Z,8.37
2023-04-27T04:14:47.245Z,8.37
2023-04-27T04:15:47.582Z,8.37
2023-04-27T04:16:47.807Z,8.36
2023-04-27T04:17:48.018Z,8.32
2023-04-27T04:18:48.457Z,8.32
2023-04-27T04:19:48.675Z,8.33
2023-04-27T04:20:48.849Z,8.30
2023-04-27T04:21:50.193Z,8.28
2023-04-27T04:22:49.603Z,8.22
2023-04-27T04:23:49.842Z,8.22
2023-04-27T04:24:50.010Z,8.25
2023-04-27T04:25:50.400Z,8.21
2023-04-27T04:26:50.712Z,8.21
2023-04-27T04:27:50.886Z,8.25
2023-04-27T04:28:51.210Z,8.25
2023-04-27T04:29:51.430Z,8.25
2023-04-27T04:30:51.776Z,8.21
2023-04-27T04:31:52.239Z,8.22
2023-04-27T04:32:52.461Z,8.18
2023-04-27T04:33:52.654Z,8.20
2023-04-27T04:34:53.001Z,8.25
2023-04-27T04:35:53.443Z,8.25
2023-04-27T04:36:53.633Z,8.28
2023-04-27T04:37:53.985Z,8.28
2023-04-27T04:38:54.132Z,8.33
2023-04-27T04:39:54.403Z,8.35
2023-04-27T04:40:54.718Z,8.39
2023-04-27T04:41:54.882Z,8.40
2023-04-27T04:42:55.379Z,8.42
2023-04-27T04:43:55.560Z,8.42
2023-04-27T04:44:55.785Z,8.47
2023-04-27T04:45:56.158Z,8.48
2023-04-27T04:46:56.463Z,8.47
2023-04-27T04:47:57.221Z,8.48
2023-04-27T04:48:57.071Z,8.55
2023-04-27T04:49:57.283Z,8.55
2023-04-27T04:50:57.692Z,8.58
2023-04-27T04:51:57.907Z,8.62
2023-04-27T04:52:58.528Z,8.62
2023-04-27T04:54:01.110Z,8.63
2023-04-27T04:54:58.941Z,8.65
2023-04-27T04:55:59.138Z,8.68
2023-04-27T04:56:59.397Z,8.75
2023-04-27T04:58:00.539Z,8.75
2023-04-27T04:58:59.918Z,8.75
2023-04-27T05:00:01.088Z,8.81
2023-04-27T05:01:00.392Z,8.86
2023-04-27T05:02:00.689Z,8.87
2023-04-27T05:03:00.998Z,8.86
2023-04-27T05:04:01.568Z,8.88
2023-04-27T05:05:01.495Z,8.88
2023-04-27T05:06:01.788Z,8.87
2023-04-27T05:07:02.014Z,8.86
2023-04-27T05:08:02.275Z,8.83
2023-04-27T05:09:02.587Z,8.83
2023-04-27T05:10:02.850Z,8.81
2023-04-27T05:11:03.089Z,8.81
2023-04-27T05:12:03.246Z,8.87
2023-04-27T05:13:05.927Z,8.88
2023-04-27T05:14:03.901Z,8.90
2023-04-27T05:15:04.182Z,8.94
2023-04-27T05:16:04.398Z,8.99
2023-04-27T05:17:04.729Z,8.99
2023-04-27T05:18:05.036Z,9.01
2023-04-27T05:19:05.211Z,9.02
2023-04-27T05:20:06.022Z,9.05
2023-04-27T05:21:05.851Z,9.09
2023-04-27T05:22:06.248Z,9.09
2023-04-27T05:23:06.478Z,9.12
2023-04-27T05:24:06.774Z,9.12
2023-04-27T05:25:06.981Z,9.12
2023-04-27T05:26:07.252Z,9.16
2023-04-27T05:27:07.702Z,9.16
2023-04-27T05:28:07.895Z,9.23
2023-04-27T05:29:08.560Z,9.24
2023-04-27T05:30:08.574Z,9.32
2023-04-27T05:31:08.948Z,9.34
2023-04-27T05:32:09.261Z,9.38
2023-04-27T05:33:09.976Z,9.32
2023-04-27T05:34:09.769Z,9.39
2023-04-27T05:35:10.074Z,9.42
2023-04-27T05:36:10.344Z,9.42
2023-04-27T05:37:10.509Z,9.39
2023-04-27T05:38:10.882Z,9.39
2023-04-27T05:39:11.179Z,9.45
2023-04-27T05:40:11.446Z,9.43
2023-04-27T05:41:11.675Z,9.49
2023-04-27T05:42:11.920Z,9.48
2023-04-27T05:43:12.231Z,9.50
2023-04-27T05:44:12.453Z,9.56
2023-04-27T05:45:12.836Z,9.64
2023-04-27T05:46:13.052Z,9.66
2023-04-27T05:47:13.330Z,9.67
2023-04-27T05:48:13.514Z,9.66
2023-04-27T05:49:14.051Z,9.67
2023-04-27T05:50:14.587Z,9.71
2023-04-27T05:51:14.405Z,9.71
2023-04-27T05:52:14.628Z,9.71
2023-04-27T05:53:14.859Z,9.71
2023-04-27T05:54:15.215Z,9.71
2023-04-27T05:55:15.578Z,9.76
2023-04-27T05:56:15.769Z,9.78
2023-04-27T05:57:15.992Z,9.79
2023-04-27T05:58:16.354Z,9.78
2023-04-27T05:59:16.780Z,9.78
2023-04-27T06:00:17.834Z,9.81
2023-04-27T06:01:17.269Z,9.79
2023-04-27T06:02:17.572Z,9.73
2023-04-27T06:03:17.865Z,9.70
2023-04-27T06:04:18.212Z,9.76
2023-04-27T06:05:18.495Z,9.79
2023-04-27T06:06:18.816Z,9.81
2023-04-27T06:07:18.946Z,9.79
2023-04-27T06:08:19.267Z,9.82
2023-04-27T06:09:19.482Z,9.82
2023-04-27T06:10:19.936Z,9.88
2023-04-27T06:11:20.059Z,9.91
2023-04-27T06:12:20.297Z,9.94
2023-04-27T06:13:20.676Z,9.97
2023-04-27T06:14:21.882Z,9.97
2023-04-27T06:15:23.335Z,9.99
2023-04-27T06:16:23.309Z,10.04
2023-04-27T06:17:24.475Z,10.09
2023-04-27T06:18:21.964Z,10.07
2023-04-27T06:19:22.314Z,10.04
2023-04-27T06:20:22.472Z,10.07
2023-04-27T06:21:22.743Z,10.17
2023-04-27T06:22:23.157Z,10.21
2023-04-27T06:23:23.336Z,10.22
2023-04-27T06:24:23.588Z,10.30
2023-04-27T06:25:26.640Z,10.30
2023-04-27T06:26:24.111Z,10.30
2023-04-27T06:27:24.356Z,10.24
2023-04-27T06:28:24.590Z,10.18
2023-04-27T06:29:24.888Z,10.24
2023-04-27T06:30:25.212Z,10.33
2023-04-27T06:31:25.551Z,10.36
2023-04-27T06:32:26.162Z,10.33
2023-04-27T06:33:26.077Z,10.43
2023-04-27T06:34:26.300Z,10.39
2023-04-27T06:35:26.614Z,10.42
2023-04-27T06:36:27.363Z,10.44
2023-04-27T06:37:27.185Z,10.46
2023-04-27T06:38:27.706Z,10.53
2023-04-27T06:39:27.878Z,10.58
2023-04-27T06:40:28.189Z,10.63
2023-04-27T06:41:28.479Z,10.70
2023-04-27T06:42:28.566Z,10.77
2023-04-27T06:43:29.081Z,10.77
2023-04-27T06:44:29.171Z,10.76
2023-04-27T06:45:29.588Z,10.78
2023-04-27T06:46:29.779Z,10.81
2023-04-27T06:47:30.188Z,10.86
2023-04-27T06:48:30.504Z,10.80
2023-04-27T06:49:30.919Z,10.83
2023-04-27T06:50:31.022Z,10.86
2023-04-27T06:51:31.241Z,10.89
2023-04-27T06:52:31.564Z,10.98
2023-04-27T06:53:32.065Z,10.95
2023-04-27T06:54:32.108Z,11.01
2023-04-27T06:55:32.348Z,11.10
2023-04-27T06:56:32.580Z,11.10
2023-04-27T06:57:32.894Z,11.10
2023-04-27T06:58:33.169Z,11.09
2023-04-27T06:59:33.491Z,11.06
2023-04-27T07:00:33.854Z,11.06
2023-04-27T07:01:33.972Z,11.07
2023-04-27T07:02:34.289Z,11.13
2023-04-27T07:03:34.708Z,11.02
2023-04-27T07:04:35.799Z,11.03
2023-04-27T07:05:35.092Z,11.07
2023-04-27T07:06:35.296Z,11.14
2023-04-27T07:07:35.671Z,11.21
2023-04-27T07:08:36.941Z,11.29
2023-04-27T07:09:36.195Z,11.38
2023-04-27T07:10:36.431Z,11.52
2023-04-27T07:11:36.867Z,11.56
2023-04-27T07:12:36.877Z,11.53
2023-04-27T07:13:37.285Z,11.52
2023-04-27T07:14:37.631Z,11.53
2023-04-27T07:15:37.870Z,11.56
2023-04-27T07:16:38.144Z,11.62
2023-04-27T07:17:38.473Z,11.72
2023-04-27T07:18:38.723Z,11.82
2023-04-27T07:19:38.993Z,11.80
2023-04-27T07:20:40.616Z,11.85
2023-04-27T07:21:39.577Z,11.85
2023-04-27T07:22:39.813Z,11.80
2023-04-27T07:23:40.113Z,11.80
2023-04-27T07:24:40.339Z,11.83
2023-04-27T07:25:40.832Z,11.80
2023-04-27T07:26:40.915Z,11.80
2023-04-27T07:27:41.270Z,11.86
2023-04-27T07:28:42.755Z,11.94
2023-04-27T07:29:41.791Z,11.97
2023-04-27T07:30:42.521Z,11.97
2023-04-27T07:31:44.198Z,12.05
2023-04-27T07:32:42.703Z,12.13
2023-04-27T07:33:42.944Z,12.30
2023-04-27T07:34:52.523Z,12.30
2023-04-27T07:35:44.667Z,12.30
2023-04-27T07:36:43.979Z,12.41
2023-04-27T07:37:44.185Z,12.41
2023-04-27T07:38:44.486Z,12.41
2023-04-27T07:39:44.729Z,12.46
2023-04-27T07:40:45.053Z,12.46
2023-04-27T07:41:45.374Z,12.42
2023-04-27T07:42:45.672Z,12.41
2023-04-27T07:43:45.914Z,12.39
2023-04-27T07:44:46.178Z,12.45
2023-04-27T07:45:47.354Z,12.48
2023-04-27T07:46:46.796Z,12.48
2023-04-27T07:47:46.992Z,12.51
2023-04-27T07:48:47.355Z,12.54
2023-04-27T07:49:47.657Z,12.57
2023-04-27T07:50:47.907Z,12.59
2023-04-27T07:51:48.100Z,12.60
2023-04-27T07:52:48.455Z,12.63
2023-04-27T07:53:49.500Z,12.64
2023-04-27T07:54:48.954Z,12.71
2023-04-27T07:55:49.217Z,12.81
2023-04-27T07:56:49.460Z,12.87
2023-04-27T07:57:49.749Z,12.99
2023-04-27T07:58:50.088Z,13.06
2023-04-27T07:59:50.419Z,13.14
2023-04-27T08:00:50.692Z,13.22
2023-04-27T08:01:50.967Z,13.32
2023-04-27T08:02:51.412Z,13.43
2023-04-27T08:03:52.543Z,13.43
2023-04-27T08:04:52.105Z,13.47
2023-04-27T08:05:53.344Z,13.47
2023-04-27T08:06:52.535Z,13.55
2023-04-27T08:07:53.153Z,13.61
2023-04-27T08:08:52.949Z,13.71
2023-04-27T08:09:53.249Z,13.80
2023-04-27T08:10:53.478Z,13.87
2023-04-27T08:11:54.580Z,13.80
2023-04-27T08:12:54.095Z,13.91
2023-04-27T08:13:54.347Z,14.16
2023-04-27T08:14:54.628Z,14.46
2023-04-27T08:15:54.974Z,14.53
2023-04-27T08:16:55.294Z,14.68
2023-04-27T08:17:55.466Z,14.86
2023-04-27T08:18:55.682Z,15.19
2023-04-27T08:19:55.950Z,15.56
2023-04-27T08:20:56.275Z,15.67
2023-04-27T08:21:56.531Z,15.97
2023-04-27T08:22:56.730Z,16.11
2023-04-27T08:23:57.118Z,16.25
2023-04-27T08:24:57.327Z,16.35
2023-04-27T08:25:57.643Z,16.27
2023-04-27T08:26:58.031Z,16.68
2023-04-27T08:27:58.300Z,17.13
2023-04-27T08:28:58.733Z,17.04
2023-04-27T08:29:58.855Z,17.36
2023-04-27T08:30:59.136Z,17.67
2023-04-27T08:32:00.349Z,17.59
2023-04-27T08:32:59.681Z,17.41
2023-04-27T08:34:01.005Z,17.28
2023-04-27T08:35:00.187Z,17.44
2023-04-27T08:36:00.519Z,17.73
2023-04-27T08:37:00.765Z,18.00
2023-04-27T08:38:01.122Z,18.37
2023-04-27T08:39:01.340Z,18.65
2023-04-27T08:40:02.961Z,18.83
2023-04-27T08:41:14.180Z,19.08
2023-04-27T08:42:03.279Z,19.24
2023-04-27T08:43:02.591Z,19.24
2023-04-27T08:44:02.795Z,19.32
2023-04-27T08:45:03.096Z,19.10
2023-04-27T08:46:03.452Z,18.94
2023-04-27T08:47:03.678Z,18.57
2023-04-27T08:48:04.013Z,18.34
2023-04-27T08:49:04.420Z,18.50
2023-04-27T08:50:04.548Z,18.54
2023-04-27T08:51:05.081Z,18.64
2023-04-27T08:52:06.244Z,18.33
2023-04-27T08:53:05.471Z,18.29
2023-04-27T08:54:05.690Z,18.36
2023-04-27T08:55:06.037Z,18.04
2023-04-27T08:56:06.309Z,18.13
2023-04-27T08:57:06.549Z,17.81
2023-04-27T08:58:06.820Z,17.66
2023-04-27T08:59:07.134Z,17.50
2023-04-27T09:00:07.355Z,17.84
2023-04-27T09:01:07.613Z,18.22
2023-04-27T09:02:08.078Z,18.58
2023-04-27T09:03:08.416Z,18.84
2023-04-27T09:04:08.769Z,19.01
2023-04-27T09:05:09.822Z,19.10
2023-04-27T09:06:09.187Z,19.10
2023-04-27T09:07:09.468Z,18.98
2023-04-27T09:08:09.768Z,18.95
2023-04-27T09:09:09.986Z,18.86
2023-04-27T09:10:10.223Z,18.97
2023-04-27T09:11:10.533Z,19.13
2023-04-27T09:12:10.841Z,19.13
2023-04-27T09:13:11.125Z,19.25
2023-04-27T09:14:11.333Z,19.36
2023-04-27T09:15:11.589Z,19.58
2023-04-27T09:16:12.097Z,19.75
2023-04-27T09:17:12.177Z,19.73
2023-04-27T09:18:12.518Z,19.68
2023-04-27T09:19:13.111Z,19.94
2023-04-27T09:20:12.962Z,20.02
2023-04-27T09:21:13.203Z,19.95
2023-04-27T09:22:13.418Z,20.21
2023-04-27T09:23:13.682Z,20.35
2023-04-27T09:24:13.963Z,20.56
2023-04-27T09:25:14.378Z,20.84
2023-04-27T09:26:14.488Z,21.08
2023-04-27T09:27:14.720Z,21.20
2023-04-27T09:28:14.955Z,21.30
2023-04-27T09:29:15.699Z,20.99
2023-04-27T09:30:15.653Z,21.06
2023-04-27T09:31:15.969Z,21.29
2023-04-27T09:32:17.009Z,21.59
2023-04-27T09:33:16.335Z,21.83
2023-04-27T09:34:16.695Z,22.04
2023-04-27T09:35:17.028Z,22.02
2023-04-27T09:36:17.270Z,22.22
2023-04-27T09:37:17.652Z,22.34
2023-04-27T09:38:17.893Z,22.14
2023-04-27T09:39:18.049Z,22.09
2023-04-27T09:40:18.333Z,22.10
2023-04-27T09:41:18.649Z,22.46
2023-04-27T09:42:19.003Z,22.56
2023-04-27T09:43:19.176Z,22.27
2023-04-27T09:44:19.607Z,21.99
2023-04-27T09:45:19.817Z,22.27
2023-04-27T09:46:20.173Z,22.28
2023-04-27T09:47:20.353Z,22.44
2023-04-27T09:48:20.633Z,22.32
2023-04-27T09:49:20.901Z,21.83
2023-04-27T09:50:21.173Z,21.60
2023-04-27T09:51:21.468Z,21.34
2023-04-27T09:52:21.749Z,20.96
2023-04-27T09:53:22.012Z,20.81
2023-04-27T09:54:22.279Z,21.23
2023-04-27T09:55:22.581Z,21.90
2023-04-27T09:56:22.885Z,22.19
2023-04-27T09:57:23.160Z,22.12
2023-04-27T09:58:23.500Z,21.85
2023-04-27T09:59:23.731Z,21.85
2023-04-27T10:00:24.033Z,21.85
2023-04-27T10:01:24.392Z,22.20
2023-04-27T10:02:25.725Z,22.22
2023-04-27T10:03:24.896Z,21.94
2023-04-27T10:04:25.450Z,22.22
2023-04-27T10:05:25.757Z,21.98
2023-04-27T10:06:25.888Z,22.22
2023-04-27T10:07:26.045Z,22.75
2023-04-27T10:08:26.319Z,23.05
2023-04-27T10:09:26.563Z,23.43
2023-04-27T10:10:26.988Z,23.40
2023-04-27T10:11:27.080Z,23.04
2023-04-27T10:12:27.510Z,22.87
2023-04-27T10:13:27.829Z,22.68
2023-04-27T10:14:28.223Z,22.59
2023-04-27T10:15:28.449Z,22.23
2023-04-27T10:16:28.866Z,21.83
2023-04-27T10:17:28.951Z,21.17
2023-04-27T10:18:29.269Z,20.69
2023-04-27T10:19:29.509Z,20.53
2023-04-27T10:20:29.838Z,20.58
2023-04-27T10:21:30.165Z,20.80
2023-04-27T10:22:30.330Z,21.30
2023-04-27T10:23:30.631Z,21.48
2023-04-27T10:24:31.767Z,21.72
2023-04-27T10:25:31.261Z,21.69
2023-04-27T10:26:32.089Z,21.48
2023-04-27T10:27:31.778Z,21.50
2023-04-27T10:28:31.984Z,21.61
2023-04-27T10:29:32.254Z,21.79
2023-04-27T10:30:32.640Z,21.91
2023-04-27T10:31:32.929Z,22.54
2023-04-27T10:32:33.000Z,23.27
2023-04-27T10:33:33.392Z,23.64
2023-04-27T10:34:33.618Z,24.01
2023-04-27T10:35:33.991Z,23.39
2023-04-27T10:36:34.160Z,23.42
2023-04-27T10:37:34.635Z,23.70
2023-04-27T10:38:34.828Z,23.77
2023-04-27T10:39:47.141Z,24.10
2023-04-27T10:40:36.458Z,23.76
2023-04-27T10:41:35.730Z,23.80
2023-04-27T10:42:36.068Z,23.75
2023-04-27T10:43:36.446Z,23.62
2023-04-27T10:44:36.546Z,24.12
2023-04-27T10:45:37.822Z,24.56
2023-04-27T10:46:37.153Z,24.76
2023-04-27T10:47:37.488Z,24.85
2023-04-27T10:48:37.654Z,24.07
2023-04-27T10:49:37.897Z,24.12
2023-04-27T10:50:38.222Z,24.37
2023-04-27T10:51:38.500Z,24.75
2023-04-27T10:52:38.715Z,24.94
2023-04-27T10:53:39.997Z,24.68
2023-04-27T10:54:39.418Z,24.63
2023-04-27T10:55:39.709Z,23.09
2023-04-27T10:56:40.014Z,22.90
2023-04-27T10:57:40.295Z,23.31
2023-04-27T10:58:48.895Z,23.50
2023-04-27T10:59:41.950Z,23.46
2023-04-27T11:00:41.153Z,23.32
2023-04-27T11:01:41.489Z,23.19
2023-04-27T11:02:41.822Z,22.84
2023-04-27T11:03:42.153Z,23.08
2023-04-27T11:04:42.400Z,23.31
2023-04-27T11:05:42.721Z,23.34
2023-04-27T11:06:42.990Z,23.58
2023-04-27T11:07:43.491Z,23.68
2023-04-27T11:08:43.522Z,24.02
2023-04-27T11:09:43.797Z,24.10
2023-04-27T11:10:44.033Z,24.23
2023-04-27T11:11:44.332Z,23.15
2023-04-27T11:12:44.670Z,22.25
2023-04-27T11:13:45.994Z,22.53
2023-04-27T11:14:45.973Z,22.84
2023-04-27T11:15:45.877Z,22.77
2023-04-27T11:16:45.784Z,23.15
2023-04-27T11:17:46.070Z,23.68
2023-04-27T11:18:46.275Z,24.16
2023-04-27T11:19:46.557Z,24.27
2023-04-27T11:20:46.944Z,23.85
2023-04-27T11:21:47.301Z,23.72
2023-04-27T11:22:47.633Z,23.90
2023-04-27T11:23:47.951Z,24.41
2023-04-27T11:24:49.096Z,24.38
2023-04-27T11:25:48.496Z,24.57
2023-04-27T11:26:48.796Z,24.45
2023-04-27T11:27:48.999Z,24.63
2023-04-27T11:28:49.413Z,24.60
2023-04-27T11:29:49.748Z,24.68
2023-04-27T11:30:50.052Z,24.60
2023-04-27T11:31:50.312Z,24.82
2023-04-27T11:32:51.573Z,25.07
2023-04-27T11:33:50.937Z,24.13
2023-04-27T11:34:51.218Z,23.92
2023-04-27T11:35:51.483Z,23.92
2023-04-27T11:36:51.767Z,24.49
2023-04-27T11:37:52.010Z,24.82
2023-04-27T11:38:52.304Z,24.97
2023-04-27T11:39:52.639Z,24.88
2023-04-27T11:40:52.865Z,24.83
2023-04-27T11:41:52.994Z,24.76
2023-04-27T11:42:53.208Z,24.07
2023-04-27T11:43:53.606Z,24.04
2023-04-27T11:44:54.162Z,24.20
2023-04-27T11:45:54.051Z,24.32
2023-04-27T11:46:54.619Z,24.59
2023-04-27T11:47:54.778Z,24.64
2023-04-27T11:48:54.953Z,25.09
2023-04-27T11:49:55.236Z,25.39
2023-04-27T11:50:55.534Z,25.46
2023-04-27T11:51:55.792Z,25.37
2023-04-27T11:52:56.200Z,25.20
2023-04-27T11:53:57.200Z,24.34
2023-04-27T11:54:56.607Z,24.20
2023-04-27T11:55:56.850Z,24.26
2023-04-27T11:56:57.067Z,24.31
2023-04-27T11:57:57.496Z,24.49
2023-04-27T11:58:57.604Z,24.61
2023-04-27T11:59:58.013Z,24.61
2023-04-27T12:00:58.128Z,24.59
2023-04-27T12:01:58.426Z,24.35
2023-04-27T12:02:58.972Z,24.26
2023-04-27T12:04:02.126Z,24.17
2023-04-27T12:05:00.046Z,23.76
2023-04-27T12:06:11.691Z,23.07
2023-04-27T12:07:00.794Z,22.54
2023-04-27T12:08:00.004Z,22.16
2023-04-27T12:09:00.222Z,21.90
2023-04-27T12:10:01.061Z,21.38
2023-04-27T12:11:00.992Z,21.09
2023-04-27T12:12:01.257Z,21.14
2023-04-27T12:13:01.459Z,20.79
2023-04-27T12:14:01.767Z,20.49
2023-04-27T12:15:01.985Z,20.47
2023-04-27T12:16:02.285Z,20.27
2023-04-27T12:17:02.648Z,20.33
2023-04-27T12:18:03.069Z,20.49
2023-04-27T12:19:03.231Z,20.65
2023-04-27T12:20:03.435Z,20.76
2023-04-27T12:21:04.038Z,20.86
2023-04-27T12:22:03.939Z,20.91
2023-04-27T12:23:04.192Z,20.91
2023-04-27T12:24:04.500Z,20.93
2023-04-27T12:25:04.797Z,20.89
2023-04-27T12:26:05.028Z,20.41
2023-04-27T12:27:05.263Z,20.21
2023-04-27T12:28:05.621Z,20.23
2023-04-27T12:29:05.769Z,20.30
2023-04-27T12:30:06.182Z,20.31
2023-04-27T12:31:06.504Z,20.27
2023-04-27T12:32:06.748Z,20.25
2023-04-27T12:33:07.065Z,20.21
2023-04-27T12:34:07.372Z,20.24
2023-04-27T12:35:07.648Z,20.21
2023-04-27T12:36:07.824Z,19.86
2023-04-27T12:37:08.319Z,19.54
2023-04-27T12:38:08.378Z,19.18
2023-04-27T12:39:09.095Z,19.24
2023-04-27T12:40:08.918Z,19.43
2023-04-27T12:41:09.183Z,19.57
2023-04-27T12:42:09.404Z,19.63
2023-04-27T12:43:09.765Z,19.79
2023-04-27T12:44:10.030Z,19.90
2023-04-27T12:45:10.354Z,19.86
2023-04-27T12:46:10.559Z,19.91
2023-04-27T12:47:13.540Z,19.73
2023-04-27T12:48:12.048Z,19.60
2023-04-27T12:49:11.332Z,19.61
2023-04-27T12:50:11.719Z,19.25
2023-04-27T12:51:11.922Z,19.35
2023-04-27T12:52:12.112Z,19.29
2023-04-27T12:53:12.463Z,18.67
2023-04-27T12:54:13.217Z,18.64
2023-04-27T12:55:28.949Z,18.73
2023-04-27T12:56:14.347Z,18.92
2023-04-27T12:57:13.578Z,19.15
2023-04-27T12:58:13.917Z,19.28
2023-04-27T12:59:14.286Z,19.43
2023-04-27T13:00:14.655Z,19.55
2023-04-27T13:01:14.852Z,19.60
2023-04-27T13:02:15.302Z,19.54
2023-04-27T13:03:15.491Z,19.63
2023-04-27T13:04:15.955Z,19.76
2023-04-27T13:05:15.935Z,19.91
2023-04-27T13:06:16.174Z,20.00
2023-04-27T13:07:16.394Z,20.00
2023-04-27T13:08:16.794Z,20.03
2023-04-27T13:09:17.871Z,20.12
2023-04-27T13:10:17.249Z,20.12
2023-04-27T13:11:17.521Z,19.91
2023-04-27T13:12:17.843Z,19.91
2023-04-27T13:13:18.117Z,19.87
2023-04-27T13:14:18.520Z,19.90
2023-04-27T13:15:18.800Z,20.06
2023-04-27T13:16:19.076Z,20.12
2023-04-27T13:17:19.432Z,19.93
2023-04-27T13:18:20.609Z,19.84
2023-04-27T13:19:19.828Z,19.78
2023-04-27T13:20:20.350Z,19.46
2023-04-27T13:21:20.837Z,19.36
2023-04-27T13:22:21.014Z,19.50
2023-04-27T13:23:24.992Z,19.65
2023-04-27T13:24:24.746Z,19.70
2023-04-27T13:25:21.486Z,19.83
2023-04-27T13:26:21.671Z,19.93
2023-04-27T13:27:22.018Z,19.91